createdAt,value
2022-11-13T00:01:40.611Z,102276.07
2022-11-13T00:04:50.861Z,102277.96
2022-11-13T00:08:01.443Z,102274.59
2022-11-13T00:11:14.941Z,102270.16
2022-11-13T00:14:25.756Z,102273.85
2022-11-13T00:17:36.574Z,102265.97
2022-11-13T00:20:47.361Z,102269.54
2022-11-13T00:23:58.703Z,102269.63
2022-11-13T00:27:10.126Z,102266.17
2022-11-13T00:30:20.934Z,102268.69
2022-11-13T00:34:02.078Z,102272.25
2022-11-13T00:37:03.251Z,102259.23
2022-11-13T00:40:15.700Z,102259.23
2022-11-13T00:43:27.012Z,102263.63
2022-11-13T00:46:37.462Z,102249.95
2022-11-13T00:49:47.905Z,102243.14
2022-11-13T00:52:58.638Z,102247.66
2022-11-13T00:56:10.083Z,102246.05
2022-11-13T00:59:20.838Z,102254.14
2022-11-13T01:02:31.673Z,102249.09
2022-11-13T01:05:43.620Z,102249.29
2022-11-13T01:08:57.892Z,102252.12
2022-11-13T01:12:08.890Z,102249.69
2022-11-13T01:15:19.496Z,102243.90
2022-11-13T01:18:30.896Z,102250.09
2022-11-13T01:21:41.737Z,102249.47
2022-11-13T01:24:52.013Z,102249.67
2022-11-13T01:28:03.457Z,102248.06
2022-11-13T01:31:17.754Z,102251.75
2022-11-13T01:34:29.181Z,102243.21
2022-11-13T01:37:39.411Z,102244.16
2022-11-13T01:40:51.117Z,102242.58
2022-11-13T01:44:02.833Z,102247.92
2022-11-13T01:47:13.270Z,102257.67
2022-11-13T01:50:23.549Z,102250.83
2022-11-13T01:53:35.445Z,102256.19
2022-11-13T01:56:48.973Z,102247.57
2022-11-13T02:00:04.166Z,102257.33
2022-11-13T02:03:14.840Z,102250.39
2022-11-13T02:06:26.931Z,102244.28
2022-11-13T02:09:42.333Z,102255.84
2022-11-13T02:12:53.885Z,102244.59
2022-11-13T02:16:05.391Z,102248.16
2022-11-13T02:19:23.524Z,102246.47
2022-11-13T02:22:39.105Z,102229.13
2022-11-13T02:25:53.687Z,102244.98
2022-11-13T02:29:04.572Z,102234.48
2022-11-13T02:32:15.539Z,102238.88
2022-11-13T02:35:31.459Z,102243.30
2022-11-13T02:38:44.938Z,102243.30
2022-11-13T02:41:55.993Z,102244.13
2022-11-13T02:45:07.088Z,102246.86
2022-11-13T02:48:17.973Z,102247.80
2022-11-13T02:51:29.885Z,102242.55
2022-11-13T02:54:40.638Z,102248.74
2022-11-13T02:57:51.059Z,102242.64
2022-11-13T03:01:04.664Z,102243.49
2022-11-13T03:04:15.723Z,102239.19
2022-11-13T03:07:26.281Z,102236.56
2022-11-13T03:10:38.149Z,102240.13
2022-11-13T03:13:48.860Z,102233.19
2022-11-13T03:16:59.795Z,102223.63
2022-11-13T03:20:12.153Z,102213.33
2022-11-13T03:23:22.414Z,102217.64
2022-11-13T03:26:32.875Z,102215.95
2022-11-13T03:29:43.163Z,102216.89
2022-11-13T03:32:57.067Z,102216.15
2022-11-13T03:36:09.252Z,102225.91
2022-11-13T03:39:21.070Z,102229.47
2022-11-13T03:42:32.254Z,102223.36
2022-11-13T03:45:43.402Z,102218.23
2022-11-13T03:48:54.029Z,102215.68
2022-11-13T03:52:04.663Z,102208.75
2022-11-13T03:55:15.046Z,102209.61
2022-11-13T03:58:25.941Z,102214.11
2022-11-13T04:01:38.678Z,102204.44
2022-11-13T04:04:49.457Z,102194.06
2022-11-13T04:08:00.884Z,102200.25
2022-11-13T04:11:14.408Z,102200.33
2022-11-13T04:14:25.759Z,102195.19
2022-11-13T04:17:36.427Z,102185.72
2022-11-13T04:20:47.280Z,102191.91
2022-11-13T04:23:57.926Z,102192.09
2022-11-13T04:27:10.773Z,102190.52
2022-11-13T04:30:21.848Z,102182.84
2022-11-13T04:33:32.298Z,102176.11
2022-11-13T04:36:43.233Z,102179.67
2022-11-13T04:39:53.980Z,102185.86
2022-11-13T04:43:05.062Z,102181.55
2022-11-13T04:46:15.505Z,102187.73
2022-11-13T04:49:26.064Z,102191.48
2022-11-13T04:52:36.392Z,102191.56
2022-11-13T04:55:48.218Z,102194.48
2022-11-13T04:59:01.841Z,102195.50
2022-11-13T05:02:13.086Z,102202.55
2022-11-13T05:05:23.811Z,102194.01
2022-11-13T05:08:34.304Z,102200.11
2022-11-13T05:11:44.781Z,102199.36
2022-11-13T05:14:55.383Z,102194.20
2022-11-13T05:18:08.893Z,102197.75
2022-11-13T05:21:19.926Z,102190.83
2022-11-13T05:24:30.824Z,102195.24
2022-11-13T05:27:41.798Z,102196.18
2022-11-13T05:30:52.627Z,102194.57
2022-11-13T05:34:05.936Z,102197.30
2022-11-13T05:37:17.265Z,102205.06
2022-11-13T05:40:27.619Z,102205.06
2022-11-13T05:43:40.206Z,102200.67
2022-11-13T05:46:50.981Z,102203.19
2022-11-13T05:50:00.987Z,102202.17
2022-11-13T05:53:11.596Z,102205.55
2022-11-13T05:56:24.157Z,102208.98
2022-11-13T05:59:34.629Z,102218.36
2022-11-13T06:02:45.179Z,102226.03
2022-11-13T06:05:55.712Z,102223.22
2022-11-13T06:09:08.344Z,102223.03
2022-11-13T06:12:19.265Z,102221.91
2022-11-13T06:15:30.293Z,102217.41
2022-11-13T06:18:42.911Z,102213.66
2022-11-13T06:21:54.091Z,102206.53
2022-11-13T06:25:08.238Z,102212.25
2022-11-13T06:28:18.437Z,102199.69
2022-11-13T06:31:31.939Z,102204.55
2022-11-13T06:34:42.577Z,102206.79
2022-11-13T06:37:52.851Z,102203.97
2022-11-13T06:41:04.577Z,102207.97
2022-11-13T06:44:15.280Z,102210.31
2022-11-13T06:47:25.987Z,102209.81
2022-11-13T06:50:38.082Z,102212.89
2022-11-13T06:53:49.507Z,102209.76
2022-11-13T06:56:59.987Z,102209.19
2022-11-13T07:00:13.918Z,102205.96
2022-11-13T07:03:28.845Z,102218.38
2022-11-13T07:06:40.640Z,102210.73
2022-11-13T07:09:51.928Z,102208.86
2022-11-13T07:13:03.658Z,102211.39
2022-11-13T07:16:17.722Z,102220.04
2022-11-13T07:19:29.337Z,102220.76
2022-11-13T07:22:40.058Z,102225.69
2022-11-13T07:25:50.100Z,102222.72
2022-11-13T07:29:01.602Z,102225.22
2022-11-13T07:32:12.521Z,102218.86
2022-11-13T07:35:46.068Z,102226.29
2022-11-13T07:39:44.233Z,102220.41
2022-11-13T07:43:17.014Z,102224.81
2022-11-13T07:46:29.351Z,102225.48
2022-11-13T07:49:40.413Z,102216.08
2022-11-13T07:52:55.981Z,102207.36
2022-11-13T07:56:18.919Z,102206.27
2022-11-13T07:59:35.461Z,102202.68
2022-11-13T08:02:50.690Z,102202.64
2022-11-13T08:06:33.390Z,102209.67
2022-11-13T08:09:44.127Z,102202.37
2022-11-13T08:13:02.431Z,102199.62
2022-11-13T08:16:14.207Z,102196.84
2022-11-13T08:19:25.233Z,102199.33
2022-11-13T08:22:36.284Z,102191.48
2022-11-13T08:25:47.110Z,102188.63
2022-11-13T08:28:58.196Z,102191.77
2022-11-13T08:32:09.924Z,102185.52
2022-11-13T08:35:25.203Z,102180.27
2022-11-13T08:38:41.417Z,102187.11
2022-11-13T08:41:52.654Z,102178.16
2022-11-13T08:45:03.562Z,102189.55
2022-11-13T08:48:17.752Z,102178.89
2022-11-13T08:51:28.481Z,102170.72
2022-11-13T08:54:40.840Z,102174.11
2022-11-13T08:58:07.128Z,102171.51
2022-11-13T09:01:42.675Z,102173.05
2022-11-13T09:05:14.092Z,102156.13
2022-11-13T09:08:34.143Z,102163.83
2022-11-13T09:11:48.044Z,102156.84
2022-11-13T09:15:24.825Z,102143.48
2022-11-13T09:18:36.073Z,102141.47
2022-11-13T09:21:48.281Z,102134.56
2022-11-13T09:24:59.881Z,102137.98
2022-11-13T09:28:15.788Z,102129.38
2022-11-13T09:31:36.021Z,102122.27
2022-11-13T09:34:48.361Z,102125.64
2022-11-13T09:38:09.452Z,102119.70
2022-11-13T09:41:27.429Z,102120.05
2022-11-13T09:44:54.657Z,102123.72
2022-11-13T09:48:22.705Z,102125.72
2022-11-13T09:51:38.160Z,102119.70
2022-11-13T09:54:58.045Z,102115.69
2022-11-13T09:58:24.575Z,102113.33
2022-11-13T10:01:49.783Z,102102.14
2022-11-13T10:05:08.274Z,102092.75
2022-11-13T10:08:34.915Z,102089.55
2022-11-13T10:11:55.775Z,102089.00
2022-11-13T10:15:11.792Z,102085.13
2022-11-13T10:18:57.427Z,102089.06
2022-11-13T10:22:35.539Z,102080.45
2022-11-13T10:25:48.269Z,102074.70
2022-11-13T10:32:56.359Z,102068.88
2022-11-13T10:36:18.678Z,102069.66
2022-11-13T10:39:29.449Z,102059.70
2022-11-13T10:42:43.732Z,102060.28
2022-11-13T10:46:11.739Z,102049.70
2022-11-13T10:49:30.413Z,102048.77
2022-11-13T10:52:58.400Z,102046.86
2022-11-13T10:56:28.213Z,102033.42
2022-11-13T10:59:46.046Z,102034.14
2022-11-13T11:02:57.759Z,102029.91
2022-11-13T11:06:17.022Z,102026.30
2022-11-13T11:09:32.703Z,102023.89
2022-11-13T11:12:56.161Z,102018.63
2022-11-13T11:16:10.136Z,102015.38
2022-11-13T11:19:28.765Z,102015.84
2022-11-13T11:22:42.712Z,102001.70
2022-11-13T11:26:05.337Z,102004.45
2022-11-13T11:29:23.483Z,102004.91
2022-11-13T11:32:39.106Z,101998.98
2022-11-13T11:35:56.446Z,102001.91
2022-11-13T11:39:21.867Z,101996.81
2022-11-13T11:42:41.815Z,101989.42
2022-11-13T11:45:53.299Z,101984.70
2022-11-13T11:49:05.110Z,101981.47
2022-11-13T11:52:32.755Z,101971.81
2022-11-13T11:56:19.621Z,101969.59
2022-11-13T11:59:56.972Z,101972.70
2022-11-13T12:03:47.953Z,101967.98
2022-11-13T12:07:15.819Z,101970.91
2022-11-13T12:10:38.396Z,101964.14
2022-11-13T12:14:01.207Z,101965.41
2022-11-13T12:17:28.013Z,101958.01
2022-11-13T12:20:45.185Z,101962.34
2022-11-13T12:24:12.877Z,101957.62
2022-11-13T12:27:43.273Z,101957.09
2022-11-13T12:31:06.338Z,101961.42
2022-11-13T12:34:30.205Z,101960.41
2022-11-13T12:37:53.066Z,101955.67
2022-11-13T12:41:10.893Z,101960.86
2022-11-13T12:44:29.043Z,101955.67
2022-11-13T12:48:11.295Z,101955.50
2022-11-13T12:51:22.164Z,101952.42
2022-11-13T12:54:36.292Z,101950.38
2022-11-13T12:57:51.939Z,101952.03
2022-11-13T13:01:08.879Z,101942.52
2022-11-13T13:04:42.440Z,101936.73
2022-11-13T13:08:16.243Z,101936.91
2022-11-13T13:11:39.033Z,101925.76
2022-11-13T13:15:12.979Z,101932.50
2022-11-13T13:18:32.611Z,101927.50
2022-11-13T13:21:50.288Z,101932.61
2022-11-13T13:25:14.224Z,101929.69
2022-11-13T13:28:25.795Z,101934.80
2022-11-13T13:31:47.824Z,101924.84
2022-11-13T13:35:09.146Z,101921.92
2022-11-13T13:38:28.471Z,101926.01
2022-11-13T13:41:54.851Z,101919.76
2022-11-13T13:45:24.929Z,101917.03
2022-11-13T13:48:42.591Z,101919.00
2022-11-13T13:51:57.069Z,101916.44
2022-11-13T13:55:17.870Z,101918.22
2022-11-13T13:58:32.871Z,101921.22
2022-11-13T14:01:54.387Z,101917.00
2022-11-13T14:05:18.820Z,101920.81
2022-11-13T14:08:31.038Z,101917.23
2022-11-13T14:11:42.546Z,101913.00
2022-11-13T14:14:53.630Z,101909.55
2022-11-13T14:18:13.965Z,101916.86
2022-11-13T14:21:26.305Z,101921.94
2022-11-13T14:24:37.337Z,101915.67
2022-11-13T14:27:49.719Z,101916.58
2022-11-13T14:31:04.016Z,101920.19
2022-11-13T14:34:22.874Z,101912.42
2022-11-13T14:37:38.032Z,101918.88
2022-11-13T14:40:50.629Z,101908.45
2022-11-13T14:44:02.410Z,101917.37
2022-11-13T14:47:25.659Z,101917.64
2022-11-13T14:50:38.196Z,101911.88
2022-11-13T14:54:03.829Z,101904.95
2022-11-13T14:57:18.950Z,101906.22
2022-11-13T15:00:40.449Z,101908.27
2022-11-13T15:03:52.573Z,101904.31
2022-11-13T15:07:05.588Z,101907.23
2022-11-13T15:10:16.211Z,101906.63
2022-11-13T15:13:27.600Z,101908.69
2022-11-13T15:16:39.477Z,101895.55
2022-11-13T15:19:53.887Z,101908.12
2022-11-13T15:23:04.786Z,101901.31
2022-11-13T15:26:16.779Z,101901.54
2022-11-13T15:29:27.682Z,101901.57
2022-11-13T15:32:39.071Z,101902.41
2022-11-13T15:35:52.015Z,101889.95
2022-11-13T15:39:06.606Z,101897.13
2022-11-13T15:42:28.583Z,101897.00
2022-11-13T15:45:43.968Z,101896.17
2022-11-13T15:48:58.306Z,101896.49
2022-11-13T15:52:10.713Z,101895.84
2022-11-13T15:55:28.870Z,101897.03
2022-11-13T15:58:39.994Z,101902.69
2022-11-13T16:01:56.648Z,101901.03
2022-11-13T16:05:10.977Z,101906.34
2022-11-13T16:08:21.874Z,101902.02
2022-11-13T16:11:35.306Z,101900.83
2022-11-13T16:14:46.775Z,101902.33
2022-11-13T16:18:00.866Z,101913.63
2022-11-13T16:21:14.349Z,101910.63
2022-11-13T16:24:25.406Z,101906.78
2022-11-13T16:27:36.849Z,101906.61
2022-11-13T16:30:48.645Z,101913.58
2022-11-13T16:33:59.402Z,101902.73
2022-11-13T16:37:17.430Z,101905.37
2022-11-13T16:40:29.423Z,101911.50
2022-11-13T16:43:40.840Z,101916.61
2022-11-13T16:46:53.490Z,101909.27
2022-11-13T16:50:04.427Z,101905.41
2022-11-13T16:53:15.099Z,101914.87
2022-11-13T16:56:30.808Z,101917.14
2022-11-13T16:59:42.101Z,101907.28
2022-11-13T17:02:55.348Z,101914.39
2022-11-13T17:06:07.042Z,101914.17
2022-11-13T17:09:18.530Z,101922.09
2022-11-13T17:12:29.437Z,101918.55
2022-11-13T17:15:40.254Z,101916.66
2022-11-13T17:18:53.563Z,101918.58
2022-11-13T17:22:04.631Z,101915.86
2022-11-13T17:25:15.098Z,101920.28
2022-11-13T17:28:26.147Z,101911.40
2022-11-13T17:31:37.297Z,101923.61
2022-11-13T17:34:49.224Z,101912.92
2022-11-13T17:38:00.079Z,101910.19
2022-11-13T17:41:13.682Z,101907.63
2022-11-13T17:44:24.639Z,101913.66
2022-11-13T17:47:38.348Z,101907.29
2022-11-13T17:50:56.802Z,101904.72
2022-11-13T17:54:07.698Z,101903.47
2022-11-13T17:57:21.561Z,101904.23
2022-11-13T18:00:37.285Z,101909.44
2022-11-13T18:03:48.862Z,101901.52
2022-11-13T18:07:00.114Z,101904.76
2022-11-13T18:10:13.160Z,101901.19
2022-11-13T18:13:23.758Z,101908.99
2022-11-13T18:16:35.684Z,101901.76
2022-11-13T18:19:47.028Z,101902.50
2022-11-13T18:22:58.871Z,101897.91
2022-11-13T18:26:14.669Z,101896.97
2022-11-13T18:29:26.151Z,101905.61
2022-11-13T18:32:37.094Z,101896.56
2022-11-13T18:35:48.296Z,101891.27
2022-11-13T18:38:59.481Z,101897.13
2022-11-13T18:42:10.655Z,101892.56
2022-11-13T18:45:22.143Z,101897.56
2022-11-13T18:48:38.550Z,101893.81
2022-11-13T18:51:49.828Z,101893.67
2022-11-13T18:55:01.004Z,101897.03
2022-11-13T18:58:11.984Z,101904.67
2022-11-13T19:01:27.217Z,101902.58
2022-11-13T19:04:40.059Z,101903.28
2022-11-13T19:07:51.157Z,101902.16
2022-11-13T19:11:10.701Z,101905.20
2022-11-13T19:14:22.532Z,101904.92
2022-11-13T19:17:33.099Z,101910.75
2022-11-13T19:20:44.530Z,101907.67
2022-11-13T19:23:56.988Z,101901.11
2022-11-13T19:27:07.660Z,101902.50
2022-11-13T19:30:21.582Z,101886.20
2022-11-13T19:33:33.436Z,101900.78
2022-11-13T19:36:45.213Z,101884.64
2022-11-13T19:39:56.679Z,101889.34
2022-11-13T19:43:07.614Z,101888.09
2022-11-13T19:46:20.980Z,101887.65
2022-11-13T19:49:34.606Z,101884.69
2022-11-13T19:52:47.191Z,101883.28
2022-11-13T19:55:58.985Z,101882.84
2022-11-13T19:59:12.868Z,101885.19
2022-11-13T20:02:24.406Z,101881.13
2022-11-13T20:05:35.524Z,101876.23
2022-11-13T20:08:46.510Z,101871.36
2022-11-13T20:11:57.596Z,101865.64
2022-11-13T20:15:11.779Z,101855.42
2022-11-13T20:18:24.152Z,101853.19
2022-11-13T20:21:35.024Z,101856.20
2022-11-13T20:24:46.517Z,101858.28
2022-11-13T20:27:57.363Z,101850.73
2022-11-13T20:31:14.359Z,101859.77
2022-11-13T20:34:26.097Z,101854.03
2022-11-13T20:37:37.845Z,101852.48
2022-11-13T20:40:48.262Z,101861.50
2022-11-13T20:44:02.025Z,101861.77
2022-11-13T20:47:12.925Z,101863.80
2022-11-13T20:50:24.109Z,101860.45
2022-11-13T20:53:35.689Z,101865.02
2022-11-13T20:56:47.171Z,101869.59
2022-11-13T20:59:59.018Z,101861.93
2022-11-13T21:03:10.211Z,101863.03
2022-11-13T21:06:22.203Z,101868.56
2022-11-13T21:09:33.108Z,101872.28
2022-11-13T21:12:44.551Z,101876.02
2022-11-13T21:15:56.245Z,101874.45
2022-11-13T21:19:08.534Z,101874.59
2022-11-13T21:22:20.345Z,101874.00
2022-11-13T21:25:31.935Z,101874.25
2022-11-13T21:28:43.054Z,101863.25
2022-11-13T21:31:54.089Z,101866.95
2022-11-13T21:35:05.399Z,101865.53
2022-11-13T21:38:16.942Z,101860.51
2022-11-13T21:41:28.758Z,101851.06
2022-11-13T21:44:40.088Z,101858.27
2022-11-13T21:47:51.117Z,101857.55
2022-11-13T21:51:02.628Z,101861.25
2022-11-13T21:54:15.755Z,101868.59
2022-11-13T21:57:27.237Z,101861.75
2022-11-13T22:00:38.677Z,101862.85
2022-11-13T22:03:49.235Z,101860.33
2022-11-13T22:07:00.558Z,101871.11
2022-11-13T22:10:12.553Z,101862.63
2022-11-13T22:13:23.281Z,101857.47
2022-11-13T22:16:37.281Z,101852.45
2022-11-13T22:19:48.174Z,101847.31
2022-11-13T22:23:00.004Z,101841.33
2022-11-13T22:26:14.346Z,101837.84
2022-11-13T22:29:25.616Z,101836.31
2022-11-13T22:32:36.459Z,101835.59
2022-11-13T22:35:48.134Z,101837.52
2022-11-13T22:39:00.171Z,101823.63
2022-11-13T22:42:11.270Z,101826.27
2022-11-13T22:45:24.011Z,101826.37
2022-11-13T22:48:37.154Z,101814.41
2022-11-13T22:51:47.765Z,101806.50
2022-11-13T22:55:02.343Z,101810.34
2022-11-13T22:58:13.125Z,101811.20
2022-11-13T23:01:25.685Z,101806.17
2022-11-13T23:04:36.843Z,101804.50
2022-11-13T23:07:48.709Z,101809.87
2022-11-13T23:11:01.294Z,101816.24
2022-11-13T23:14:15.939Z,101818.16
2022-11-13T23:17:27.503Z,101823.53
2022-11-13T23:20:42.679Z,101827.13
2022-11-13T23:23:54.373Z,101826.41
2022-11-13T23:27:05.651Z,101828.46
2022-11-13T23:30:18.586Z,101832.05
2022-11-13T23:33:30.372Z,101831.34
2022-11-13T23:36:41.050Z,101839.11
2022-11-13T23:39:52.828Z,101842.94
2022-11-13T23:43:03.728Z,101829.91
2022-11-13T23:46:14.982Z,101829.19
2022-11-13T23:49:26.093Z,101831.69
2022-11-13T23:52:37.752Z,101829.05
2022-11-13T23:55:48.749Z,101829.05
2022-11-13T23:58:59.701Z,101836.84
